Time;durP1;ratioP1;P1;durP2;ratioP2;P2;SDS_P1;SDS_P2;PMS_P1;PMS_P2;Temp;Humidity;BMP_temperature;BMP_pressure;BME280_temperature;BME280_humidity;BME280_pressure;Samples;Min_cycle;Max_cycle;Signal;HPM_P1;HPM_P2
2021/04/21 00:04:22;;;;;;;35.78;21.15;;;;;;;7.12;78.50;98764.23;4285421;81;21701;-85
2021/04/21 00:10:25;;;;;;;37.70;20.65;;;;;;;7.11;78.37;98757.99;4275433;81;21161;-85
2021/04/21 00:16:29;;;;;;;39.33;22.35;;;;;;;7.10;78.66;98754.27;4278389;81;21147;-86
2021/04/21 00:22:30;;;;;;;38.33;19.65;;;;;;;7.11;78.74;98745.74;4281207;81;21187;-86
2021/04/21 00:28:34;;;;;;;39.58;22.30;;;;;;;7.07;78.96;98744.09;4281341;81;21141;-86
2021/04/21 00:34:38;;;;;;;38.33;21.90;;;;;;;6.99;79.39;98747.25;4280868;81;21183;-84
2021/04/21 00:41:06;;;;;;;44.48;24.40;;;;;;;7.04;79.55;98746.97;4276904;81;21590;-86
2021/04/21 00:47:30;;;;;;;44.25;25.23;;;;;;;7.01;79.39;98744.17;4279707;81;21163;-86
2021/04/21 00:53:44;;;;;;;49.63;25.92;;;;;;;7.00;79.47;98747.45;4283752;81;21571;-86
2021/04/21 01:00:13;;;;;;;52.08;26.90;;;;;;;6.98;79.23;98743.52;4279821;81;21166;-85
2021/04/21 01:06:38;;;;;;;48.15;25.12;;;;;;;6.87;79.34;98733.78;4586157;75;23386;-86
2021/04/21 01:12:42;;;;;;;47.78;25.88;;;;;;;6.72;79.49;98733.84;4499017;78;21286;-85
2021/04/21 01:18:46;;;;;;;41.92;23.52;;;;;;;6.65;79.68;98726.30;4488650;78;21195;-85
2021/04/21 01:25:08;;;;;;;45.33;24.77;;;;;;;6.68;80.18;98722.07;4457503;78;21153;-86
2021/04/21 01:31:13;;;;;;;50.95;26.60;;;;;;;6.69;80.13;98716.27;4489369;78;21628;-86
2021/04/21 01:37:32;;;;;;;48.75;27.25;;;;;;;6.78;80.23;98726.38;4486251;78;21125;-85
2021/04/21 01:43:44;;;;;;;52.60;26.85;;;;;;;6.77;80.33;98727.53;4488961;78;21165;-85
2021/04/21 01:49:53;;;;;;;43.33;25.70;;;;;;;6.73;80.41;98740.28;4489448;78;21600;-86
2021/04/21 01:56:21;;;;;;;44.27;26.15;;;;;;;6.74;80.62;98735.05;4461935;78;21192;-85
2021/04/21 02:02:34;;;;;;;47.00;27.65;;;;;;;6.49;80.94;98739.14;4494674;78;21184;-85
2021/04/21 02:09:11;;;;;;;51.95;30.25;;;;;;;6.46;80.71;98734.97;4499328;78;21161;-85
2021/04/21 02:15:35;;;;;;;61.85;30.75;;;;;;;6.35;81.08;98738.81;4489004;78;21605;-85
2021/04/21 02:21:48;;;;;;;62.83;34.27;;;;;;;6.36;82.09;98734.38;4493572;78;21164;-85
2021/04/21 02:28:30;;;;;;;61.68;35.65;;;;;;;6.23;83.23;98734.84;4483170;78;21662;-86
2021/04/21 02:34:49;;;;;;;63.30;37.08;;;;;;;6.21;82.42;98735.77;4484098;78;21160;-85
2021/04/21 02:41:02;;;;;;;58.10;35.20;;;;;;;6.25;82.36;98729.83;4493310;78;21129;-85
2021/04/21 02:47:18;;;;;;;58.17;32.45;;;;;;;6.38;82.51;98726.67;4482736;78;21180;-85
2021/04/21 02:53:34;;;;;;;38.07;21.97;;;;;;;6.45;82.20;98720.61;4490854;78;21167;-85
2021/04/21 02:59:44;;;;;;;55.83;32.10;;;;;;;6.19;82.28;98715.73;4493203;78;21133;-85
2021/04/21 03:05:50;;;;;;;53.98;29.27;;;;;;;6.31;82.40;98723.00;4334946;78;68803;-85
2021/04/21 03:11:55;;;;;;;45.52;28.87;;;;;;;6.36;82.37;98726.78;4246898;83;21796;-86
2021/04/21 03:17:59;;;;;;;51.18;28.00;;;;;;;6.34;82.51;98727.73;4253469;83;22389;-86
2021/04/21 03:24:30;;;;;;;43.85;25.62;;;;;;;6.25;82.16;98724.39;4253788;83;21129;-85
2021/04/21 03:30:34;;;;;;;49.20;25.37;;;;;;;6.16;82.14;98716.44;4235011;83;21744;-86
2021/04/21 03:36:38;;;;;;;47.27;27.27;;;;;;;6.23;82.57;98725.33;4238169;83;21181;-86
2021/04/21 03:42:41;;;;;;;45.58;25.90;;;;;;;6.26;82.62;98721.31;4240555;83;21133;-88
2021/04/21 03:48:46;;;;;;;48.95;26.68;;;;;;;6.27;82.68;98729.70;4246268;83;21738;-87
2021/04/21 03:54:51;;;;;;;44.23;26.02;;;;;;;6.32;82.65;98734.88;4245054;83;21177;-86
2021/04/21 04:01:07;;;;;;;47.83;25.92;;;;;;;6.35;82.72;98731.45;4239829;83;21184;-87
2021/04/21 04:07:13;;;;;;;48.80;28.33;;;;;;;6.29;82.72;98733.44;4196619;84;21158;-86
2021/04/21 04:13:16;;;;;;;46.77;26.02;;;;;;;6.27;82.95;98735.14;4187849;84;21185;-86
2021/04/21 04:19:21;;;;;;;50.08;28.35;;;;;;;6.35;82.90;98743.69;4190808;84;21449;-86
2021/04/21 04:25:27;;;;;;;44.70;26.37;;;;;;;6.44;82.86;98737.28;4175263;84;21654;-86
2021/04/21 04:31:32;;;;;;;44.75;26.42;;;;;;;6.29;82.98;98736.95;4188211;84;21342;-86
2021/04/21 04:37:39;;;;;;;46.40;27.65;;;;;;;6.29;83.29;98732.88;4194902;83;21690;-86
2021/04/21 04:43:42;;;;;;;43.58;26.97;;;;;;;6.48;83.50;98736.78;4185626;84;21622;-86
2021/04/21 04:50:07;;;;;;;46.55;28.92;;;;;;;6.65;83.64;98741.27;4195042;84;21181;-86
2021/04/21 04:56:09;;;;;;;51.00;30.95;;;;;;;6.79;83.67;98748.38;4198465;84;21153;-86
2021/04/21 05:02:16;;;;;;;53.02;30.55;;;;;;;6.84;83.55;98748.10;4193962;83;21228;-86
2021/04/21 05:08:21;;;;;;;48.38;29.10;;;;;;;6.94;83.55;98745.40;4239788;83;21298;-87
2021/04/21 05:14:24;;;;;;;50.25;31.85;;;;;;;6.95;83.67;98746.96;4243139;83;21287;-86
2021/04/21 05:21:22;;;;;;;48.20;30.02;;;;;;;7.04;83.67;98756.50;4244053;83;21566;-86
2021/04/21 05:28:20;;;;;;;46.30;30.35;;;;;;;7.04;83.68;98755.70;4238986;83;21200;-86
2021/04/21 05:34:47;;;;;;;50.10;31.57;;;;;;;7.17;83.74;98759.28;4241289;83;21177;-86
2021/04/21 05:41:22;;;;;;;52.43;31.40;;;;;;;7.29;83.79;98763.80;4171142;83;28805;-87
2021/04/21 05:47:54;;;;;;;54.53;30.23;;;;;;;7.41;83.91;98767.73;4166732;83;22359;-86
2021/04/21 05:54:16;;;;;;;52.65;32.67;;;;;;;7.52;83.87;98781.78;4169106;85;21147;-86
2021/04/21 06:00:26;;;;;;;57.85;34.80;;;;;;;7.64;83.48;98775.41;4168978;85;21175;-86
2021/04/21 06:06:28;;;;;;;64.45;37.00;;;;;;;7.80;83.22;98787.77;4165316;85;21603;-87
2021/04/21 06:12:32;;;;;;;62.62;37.20;;;;;;;8.03;83.23;98789.17;4172990;85;21195;-87
2021/04/21 06:18:34;;;;;;;49.00;32.30;;;;;;;8.30;82.96;98794.14;4176828;85;21187;-86
2021/04/21 06:24:35;;;;;;;52.08;33.95;;;;;;;8.56;82.67;98787.34;4169088;85;21177;-87
2021/04/21 06:30:37;;;;;;;67.67;39.03;;;;;;;8.76;82.34;98786.09;4172432;85;21188;-87
2021/04/21 06:36:46;;;;;;;62.83;37.40;;;;;;;8.93;81.96;98780.89;4168943;85;21162;-86
2021/04/21 06:42:49;;;;;;;64.12;38.63;;;;;;;9.21;81.76;98781.84;4164833;82;21209;-87
2021/04/21 06:48:55;;;;;;;59.93;38.13;;;;;;;9.24;81.54;98784.62;4175925;85;21662;-88
2021/04/21 06:55:10;;;;;;;58.63;37.58;;;;;;;9.47;81.30;98784.53;4172107;85;22140;-87
2021/04/21 07:01:14;;;;;;;58.15;34.55;;;;;;;9.64;81.07;98783.95;4168561;85;21329;-87
2021/04/21 07:07:15;;;;;;;52.85;30.68;;;;;;;9.81;80.82;98775.16;4142762;84;21178;-87
2021/04/21 07:13:22;;;;;;;49.15;29.12;;;;;;;10.29;80.30;98781.52;4139292;85;21265;-87
2021/04/21 07:19:26;;;;;;;51.13;31.87;;;;;;;10.66;80.19;98784.36;4139598;85;21615;-87
2021/04/21 07:25:28;;;;;;;53.90;33.53;;;;;;;11.40;79.49;98788.12;4139022;85;21358;-87
2021/04/21 07:31:38;;;;;;;37.45;25.92;;;;;;;12.24;78.86;98786.42;4126275;85;21159;-87
2021/04/21 07:37:41;;;;;;;38.40;24.65;;;;;;;12.82;77.72;98785.23;4129983;85;21696;-88
2021/04/21 07:43:47;;;;;;;40.73;27.95;;;;;;;13.44;75.84;98784.91;4136045;85;21324;-88
2021/04/21 07:49:58;;;;;;;36.13;25.90;;;;;;;13.03;75.37;98783.26;4141085;85;21637;-88
2021/04/21 07:56:04;;;;;;;35.10;24.05;;;;;;;12.79;74.67;98792.89;4141456;85;21657;-87
2021/04/21 08:02:17;;;;;;;35.45;25.17;;;;;;;12.59;74.85;98794.66;4144084;85;21300;-87
2021/04/21 08:08:36;;;;;;;38.85;22.25;;;;;;;12.29;74.19;98796.99;4179157;85;21312;-87
2021/04/21 08:14:52;;;;;;;37.73;23.05;;;;;;;12.37;73.90;98798.58;4169845;85;21641;-87
2021/04/21 08:20:55;;;;;;;38.90;24.37;;;;;;;12.45;73.49;98792.50;4176119;85;21682;-87
2021/04/21 08:26:56;;;;;;;38.42;25.00;;;;;;;12.81;73.61;98793.29;4171183;85;21153;-87
2021/04/21 08:32:58;;;;;;;37.48;24.57;;;;;;;13.22;72.79;98788.32;4177905;85;21198;-87
2021/04/21 08:39:00;;;;;;;39.27;25.52;;;;;;;13.44;72.40;98795.91;4176350;85;21626;-88
2021/04/21 08:45:02;;;;;;;38.73;26.55;;;;;;;13.41;71.15;98797.50;4174861;85;21186;-87
2021/04/21 08:51:06;;;;;;;52.10;33.83;;;;;;;13.31;71.59;98791.43;4133120;84;21224;-87
2021/04/21 08:57:08;;;;;;;52.35;31.73;;;;;;;13.31;71.63;98790.66;4122528;85;21634;-88
2021/04/21 09:03:10;;;;;;;36.90;27.15;;;;;;;13.51;71.48;98791.77;4126665;85;21209;-88
2021/04/21 09:09:18;;;;;;;37.28;24.40;;;;;;;13.87;71.36;98787.67;4125794;86;21181;-88
2021/04/21 09:15:19;;;;;;;36.45;23.42;;;;;;;14.50;70.60;98785.89;4119759;85;21153;-87
2021/04/21 09:21:31;;;;;;;35.43;23.90;;;;;;;14.72;69.69;98785.90;4136172;82;29590;-88
2021/04/21 09:27:34;;;;;;;42.48;28.95;;;;;;;14.89;69.69;98784.19;4318382;80;21592;-88
2021/04/21 09:33:35;;;;;;;33.35;22.13;;;;;;;15.29;68.20;98776.48;4329057;80;21330;-88
2021/04/21 09:39:37;;;;;;;26.85;17.87;;;;;;;15.82;67.93;98773.11;4336027;80;21719;-88
2021/04/21 09:45:44;;;;;;;20.92;15.10;;;;;;;16.02;67.25;98762.97;4332370;80;21321;-87
2021/04/21 09:51:46;;;;;;;32.15;17.10;;;;;;;16.95;66.94;98756.33;4330026;80;21157;-88
2021/04/21 09:57:47;;;;;;;25.92;19.50;;;;;;;18.27;61.29;98755.38;4333273;80;21186;-87
2021/04/21 10:04:13;;;;;;;25.68;16.15;;;;;;;18.47;63.41;98749.18;4342338;80;21337;-88
2021/04/21 10:10:20;;;;;;;18.55;12.00;;;;;;;18.11;62.88;98738.73;4332188;80;21171;-85
2021/04/21 10:16:22;;;;;;;21.10;12.68;;;;;;;18.27;62.46;98725.69;4328651;82;21143;-86
2021/04/21 10:22:24;;;;;;;11.75;8.23;;;;;;;18.47;61.10;98726.41;4318891;82;21191;-86
2021/04/21 10:28:26;;;;;;;8.68;6.47;;;;;;;19.69;59.02;98721.50;4325784;80;21159;-86
2021/04/21 10:34:29;;;;;;;11.80;6.10;;;;;;;20.70;56.73;98706.20;4323927;82;21825;-87
2021/04/21 10:40:31;;;;;;;10.90;6.30;;;;;;;20.42;55.23;98706.55;4345246;82;21119;-86
2021/04/21 10:46:59;;;;;;;7.60;6.05;;;;;;;20.00;56.07;98699.52;4329148;82;21183;-86
2021/04/21 10:53:01;;;;;;;11.65;8.15;;;;;;;20.67;53.50;98698.13;4341922;82;21163;-86
2021/04/21 10:59:04;;;;;;;9.93;7.62;;;;;;;21.23;50.94;98691.22;4317652;80;21606;-87
2021/04/21 11:05:14;;;;;;;11.28;8.80;;;;;;;21.59;50.09;98681.70;4366632;80;21191;-86
2021/04/21 11:11:15;;;;;;;9.23;7.42;;;;;;;22.10;49.62;98675.17;4323134;82;21203;-85
2021/04/21 11:17:17;;;;;;;13.32;8.43;;;;;;;22.76;49.48;98663.23;4347256;82;21309;-86
2021/04/21 11:23:56;;;;;;;9.98;6.85;;;;;;;22.37;47.89;98649.52;4340937;82;21199;-87
2021/04/21 11:29:57;;;;;;;10.10;5.67;;;;;;;20.92;45.35;98622.92;4351585;82;21151;-87
2021/04/21 11:36:21;;;;;;;7.12;6.35;;;;;;;21.68;44.55;98647.71;4338232;80;21274;-86
2021/04/21 11:42:45;;;;;;;8.65;6.53;;;;;;;21.96;45.33;98645.83;4339261;82;21151;-87
2021/04/21 11:48:47;;;;;;;7.53;6.78;;;;;;;21.20;42.10;98629.49;4320780;82;21301;-87
2021/04/21 11:54:49;;;;;;;11.57;6.10;;;;;;;20.17;43.98;98641.27;4324599;82;21449;-86
2021/04/21 12:01:04;;;;;;;8.40;5.85;;;;;;;20.16;44.24;98627.19;4320315;82;21178;-87
2021/04/21 12:07:06;;;;;;;9.73;6.08;;;;;;;20.35;44.31;98630.92;4323312;81;21603;-86
2021/04/21 12:13:18;;;;;;;9.40;5.00;;;;;;;20.36;42.28;98622.13;4319071;81;21161;-86
2021/04/21 12:19:19;;;;;;;8.10;5.42;;;;;;;20.32;42.27;98624.27;4342024;81;21656;-86
2021/04/21 12:25:24;;;;;;;9.68;5.70;;;;;;;20.23;42.22;98624.94;4316952;81;21118;-86
2021/04/21 12:31:28;;;;;;;7.60;6.10;;;;;;;20.36;42.05;98623.52;4328761;82;21174;-87
2021/04/21 12:37:30;;;;;;;8.85;5.30;;;;;;;20.12;41.68;98619.56;4305558;82;21611;-86
2021/04/21 12:43:34;;;;;;;8.58;5.08;;;;;;;19.97;41.80;98613.68;4330619;82;21174;-86
2021/04/21 12:49:42;;;;;;;7.42;4.87;;;;;;;19.84;41.29;98603.19;4308098;82;21460;-85
2021/04/21 12:55:43;;;;;;;8.95;5.12;;;;;;;19.55;41.40;98591.44;4317812;81;21715;-86
2021/04/21 13:01:46;;;;;;;9.40;5.45;;;;;;;19.59;40.33;98585.14;4321704;82;21181;-86
2021/04/21 13:07:48;;;;;;;7.67;5.28;;;;;;;19.83;40.88;98584.19;4341912;81;21214;-88
2021/04/21 13:13:49;;;;;;;9.03;6.22;;;;;;;20.20;40.91;98582.77;4338497;82;21134;-87
2021/04/21 13:19:53;;;;;;;9.85;5.17;;;;;;;20.23;39.61;98571.38;4347224;82;21152;-86
2021/04/21 13:26:05;;;;;;;8.30;6.53;;;;;;;20.39;39.73;98570.44;4354042;82;21900;-87
2021/04/21 13:32:13;;;;;;;9.75;5.47;;;;;;;20.46;39.28;98570.17;4335414;81;21592;-86
2021/04/21 13:38:14;;;;;;;6.35;5.08;;;;;;;20.33;39.74;98570.22;4380842;80;21892;-86
2021/04/21 13:44:16;;;;;;;9.78;5.95;;;;;;;20.46;39.35;98559.05;4402208;80;21140;-86
2021/04/21 13:50:19;;;;;;;18.17;6.85;;;;;;;20.52;38.99;98555.25;4345187;82;21596;-86
2021/04/21 13:56:20;;;;;;;10.48;6.42;;;;;;;20.37;39.26;98556.98;4326451;81;21156;-85
2021/04/21 14:02:22;;;;;;;11.97;7.87;;;;;;;20.38;38.30;98562.70;4337095;80;21448;-85
2021/04/21 14:08:26;;;;;;;10.03;6.45;;;;;;;20.29;39.51;98559.06;4323254;82;21172;-84
2021/04/21 14:14:28;;;;;;;12.10;6.35;;;;;;;20.37;39.60;98557.59;4323405;82;21187;-85
2021/04/21 14:20:29;;;;;;;8.93;5.92;;;;;;;20.33;39.88;98591.06;4334381;82;21156;-87
2021/04/21 14:26:31;;;;;;;8.58;6.15;;;;;;;18.59;39.81;98629.28;4302694;82;21321;-86
2021/04/21 14:32:34;;;;;;;8.75;6.15;;;;;;;16.90;41.96;98630.42;4337275;81;21590;-86
2021/04/21 14:38:35;;;;;;;11.73;6.80;;;;;;;15.81;43.20;98633.54;4362099;81;21169;-86
2021/04/21 14:44:37;;;;;;;11.25;6.78;;;;;;;15.33;45.19;98635.97;4334460;82;21878;-85
2021/04/21 14:50:38;;;;;;;14.63;6.83;;;;;;;15.03;45.95;98663.55;4334261;82;21124;-86
2021/04/21 14:56:41;;;;;;;13.35;6.78;;;;;;;14.95;47.15;98670.93;4335088;82;21159;-86
2021/04/21 15:02:43;;;;;;;10.88;7.80;;;;;;;15.04;48.36;98668.45;4334336;82;21633;-86
2021/04/21 15:08:44;;;;;;;9.63;7.28;;;;;;;15.04;48.75;98659.59;4341612;82;21685;-85
2021/04/21 15:14:46;;;;;;;8.83;6.85;;;;;;;14.76;49.80;98659.92;4303088;82;22051;-86
2021/04/21 15:20:48;;;;;;;14.65;7.37;;;;;;;14.80;50.17;98655.76;4304024;82;21161;-84
2021/04/21 15:26:50;;;;;;;10.55;7.33;;;;;;;14.74;51.10;98658.17;4304333;83;21199;-86
2021/04/21 15:32:53;;;;;;;9.58;6.65;;;;;;;14.73;51.46;98653.06;4304146;82;21545;-85
2021/04/21 15:38:57;;;;;;;10.65;6.92;;;;;;;14.58;51.85;98649.67;4304373;82;21902;-85
2021/04/21 15:44:59;;;;;;;11.73;8.00;;;;;;;14.48;52.47;98652.55;4303581;82;21207;-85
2021/04/21 15:51:29;;;;;;;;;;;;;;;;;;;;;
2021/04/21 16:08:17;;;;;;;12.10;6.90;;;;;;;14.22;53.89;98656.67;4709615;75;21121;-85
2021/04/21 16:14:19;;;;;;;8.98;6.30;;;;;;;14.14;54.31;98650.45;4643112;77;21625;-85
2021/04/21 16:20:20;;;;;;;9.85;6.37;;;;;;;14.08;54.09;98647.95;4643259;77;21156;-85
2021/04/21 16:26:22;;;;;;;15.90;7.62;;;;;;;13.95;54.05;98645.50;4642695;77;21141;-85
2021/04/21 16:32:24;;;;;;;14.55;7.28;;;;;;;13.87;54.35;98640.47;4642603;77;21142;-85
2021/04/21 16:38:25;;;;;;;14.00;7.62;;;;;;;13.82;54.70;98643.65;4643263;77;21589;-85
2021/04/21 16:44:27;;;;;;;11.53;7.30;;;;;;;13.71;55.88;98653.94;4643243;77;21125;-85
2021/04/21 16:50:29;;;;;;;9.38;6.65;;;;;;;13.59;55.52;98651.67;4642917;77;21550;-85
2021/04/21 16:56:32;;;;;;;16.27;8.30;;;;;;;13.44;55.81;98652.34;4643689;77;21149;-85
2021/04/21 17:02:35;;;;;;;15.18;8.20;;;;;;;13.36;57.02;98652.19;4640898;77;21149;-85
2021/04/21 17:08:37;;;;;;;14.33;7.85;;;;;;;13.31;57.08;98653.98;4640705;77;21117;-85
2021/04/21 17:14:39;;;;;;;18.60;8.45;;;;;;;13.26;57.20;98664.04;4641018;77;21129;-85
2021/04/21 17:20:41;;;;;;;16.97;9.08;;;;;;;13.11;57.23;98663.13;4640926;77;21137;-85
2021/04/21 17:26:45;;;;;;;14.58;8.38;;;;;;;12.97;57.14;98667.25;4640316;77;21129;-85
2021/04/21 17:32:47;;;;;;;15.53;8.73;;;;;;;12.76;58.01;98665.38;4640363;77;21176;-85
2021/04/21 17:38:50;;;;;;;13.05;8.58;;;;;;;12.67;58.37;98670.48;4642028;77;21124;-85
2021/04/21 17:44:52;;;;;;;15.00;9.50;;;;;;;12.58;58.94;98675.03;4641497;77;21590;-85
2021/04/21 17:50:55;;;;;;;16.60;10.35;;;;;;;12.46;58.45;98675.45;4640384;77;21137;-84
2021/04/21 17:56:59;;;;;;;18.17;10.30;;;;;;;12.31;58.24;98675.84;4641188;77;21152;-85
2021/04/21 18:02:59;;;;;;;17.57;10.65;;;;;;;12.14;58.55;98681.55;4639354;77;21168;-85
2021/04/21 18:09:01;;;;;;;16.23;9.85;;;;;;;11.95;58.71;98686.65;4607578;77;21753;-85
2021/04/21 18:15:06;;;;;;;20.32;11.55;;;;;;;11.68;59.75;98688.94;4606650;77;21162;-85
2021/04/21 18:21:08;;;;;;;41.73;18.02;;;;;;;11.52;60.37;98700.05;4607153;77;21114;-85
2021/04/21 18:27:10;;;;;;;70.20;39.10;;;;;;;11.32;60.44;98699.61;4401296;80;21161;-85
2021/04/21 18:33:12;;;;;;;75.50;41.05;;;;;;;11.02;60.99;98705.94;4480247;79;21177;-85
2021/04/21 18:39:15;;;;;;;59.90;30.25;;;;;;;10.85;61.62;98709.38;4402046;81;21360;-86
2021/04/21 18:45:18;;;;;;;47.95;27.98;;;;;;;10.60;61.92;98712.55;4479474;79;21566;-85
2021/04/21 18:51:20;;;;;;;53.25;31.80;;;;;;;10.27;62.50;98713.50;4402012;81;21180;-85
2021/04/21 18:57:21;;;;;;;55.78;31.60;;;;;;;10.13;62.92;98724.91;4478980;79;21311;-85
2021/04/21 19:03:23;;;;;;;50.75;30.92;;;;;;;9.97;63.43;98725.12;4479309;79;21271;-85
2021/04/21 19:09:26;;;;;;;63.10;33.02;;;;;;;9.92;63.89;98739.14;4489747;79;21129;-85
2021/04/21 19:15:28;;;;;;;54.33;28.65;;;;;;;9.66;64.95;98734.38;4490642;79;21173;-84
2021/04/21 19:21:29;;;;;;;43.73;25.57;;;;;;;9.44;64.87;98734.73;4489162;79;21164;-85
2021/04/21 19:27:31;;;;;;;45.20;24.80;;;;;;;9.49;64.92;98737.11;4489927;79;21133;-84
2021/04/21 19:33:33;;;;;;;40.95;24.98;;;;;;;9.58;64.94;98729.42;4489296;79;21173;-84
2021/04/21 19:39:43;;;;;;;39.95;23.83;;;;;;;9.66;65.29;98732.44;4489660;79;21181;-84
2021/04/21 19:45:50;;;;;;;39.73;22.65;;;;;;;9.76;65.19;98736.41;4489353;79;21153;-85
2021/04/21 19:51:52;;;;;;;40.67;23.05;;;;;;;9.78;65.13;98724.53;4488705;79;21417;-85
2021/04/21 19:57:54;;;;;;;38.17;20.90;;;;;;;9.89;66.13;98737.73;4488864;79;21649;-85
2021/04/21 20:03:56;;;;;;;39.03;22.35;;;;;;;9.93;66.51;98747.53;4487657;79;21197;-85
2021/04/21 20:09:58;;;;;;;46.70;25.05;;;;;;;9.89;67.35;98763.12;4471895;80;21160;-85
2021/04/21 20:16:00;;;;;;;45.67;24.55;;;;;;;9.89;69.42;98774.06;4471879;79;21176;-85
2021/04/21 20:22:01;;;;;;;19.65;13.18;;;;;;;9.92;69.27;98773.31;4450133;79;21663;-86
2021/04/21 20:28:03;;;;;;;18.17;11.78;;;;;;;10.14;70.26;98749.14;4441808;79;21161;-85
2021/04/21 20:34:05;;;;;;;21.62;13.35;;;;;;;10.28;70.64;98732.84;4451990;80;21177;-86
2021/04/21 20:40:08;;;;;;;18.23;12.15;;;;;;;10.18;70.25;98737.63;4468310;80;21790;-85
2021/04/21 20:46:10;;;;;;;21.73;12.90;;;;;;;10.09;69.74;98728.97;4469489;80;21165;-84
2021/04/21 20:52:12;;;;;;;19.95;12.28;;;;;;;10.10;69.32;98733.86;4469513;80;21160;-85
2021/04/21 20:58:14;;;;;;;20.10;12.23;;;;;;;10.11;69.63;98736.80;4470124;80;21161;-84
2021/04/21 21:04:16;;;;;;;18.70;11.50;;;;;;;10.12;69.73;98741.09;4470448;80;21212;-84
2021/04/21 21:10:20;;;;;;;17.12;11.12;;;;;;;10.11;69.98;98741.69;4413554;79;21996;-88
2021/04/21 21:16:21;;;;;;;17.52;11.28;;;;;;;9.82;70.75;98739.04;4421359;79;21153;-88
2021/04/21 21:22:25;;;;;;;21.17;10.65;;;;;;;9.83;70.86;98739.23;4399800;81;21165;-87
2021/04/21 21:28:26;;;;;;;17.77;11.10;;;;;;;9.80;70.88;98737.25;4399208;80;21095;-89
2021/04/21 21:34:28;;;;;;;15.58;10.88;;;;;;;9.84;70.70;98727.13;4399297;81;21187;-88
2021/04/21 21:40:32;;;;;;;22.20;13.38;;;;;;;9.81;71.07;98724.58;4399309;81;21744;-88
2021/04/21 21:46:33;;;;;;;20.97;12.75;;;;;;;9.80;71.05;98718.13;4373094;81;21173;-89
2021/04/21 21:52:35;;;;;;;23.10;14.80;;;;;;;9.84;72.44;98705.25;4380127;79;21627;-89
2021/04/21 21:58:37;;;;;;;19.90;13.53;;;;;;;10.07;71.42;98712.72;4419292;79;21136;-88
2021/04/21 22:04:38;;;;;;;21.68;14.63;;;;;;;10.12;70.73;98721.37;4411787;79;21190;-89
2021/04/21 22:10:40;;;;;;;21.77;14.73;;;;;;;10.19;70.82;98721.45;4426575;80;22086;-89
2021/04/21 22:16:42;;;;;;;25.20;15.25;;;;;;;10.19;70.68;98720.08;4397052;80;21302;-89
2021/04/21 22:22:48;;;;;;;22.55;15.90;;;;;;;10.19;70.61;98720.08;4415219;80;21121;-88
2021/04/21 22:28:49;;;;;;;20.90;13.83;;;;;;;10.22;70.09;98717.95;4418077;80;21150;-88
2021/04/21 22:34:51;;;;;;;21.02;14.28;;;;;;;10.12;70.13;98715.91;4393131;81;21193;-87
2021/04/21 22:40:53;;;;;;;24.23;14.35;;;;;;;10.05;70.19;98715.83;4393148;81;21300;-88
2021/04/21 22:46:54;;;;;;;23.62;14.80;;;;;;;9.99;70.33;98715.94;4393308;81;21168;-89
2021/04/21 22:52:57;;;;;;;31.27;18.67;;;;;;;9.90;70.39;98716.84;4392995;81;21303;-87
2021/04/21 22:58:58;;;;;;;30.48;18.42;;;;;;;9.79;70.35;98720.05;4394016;81;21163;-89
2021/04/21 23:05:00;;;;;;;30.27;19.07;;;;;;;9.75;70.44;98732.91;4392906;80;21180;-88
2021/04/21 23:11:02;;;;;;;30.62;18.50;;;;;;;9.76;70.76;98724.91;4387618;81;21152;-88
2021/04/21 23:17:04;;;;;;;25.97;17.25;;;;;;;9.79;71.28;98722.03;4388663;81;21708;-88
2021/04/21 23:23:05;;;;;;;37.35;16.75;;;;;;;9.73;71.62;98724.87;4393298;81;21160;-88
2021/04/21 23:29:07;;;;;;;24.57;16.37;;;;;;;9.48;71.62;98730.08;4392581;81;21149;-87
2021/04/21 23:35:11;;;;;;;25.45;14.95;;;;;;;9.44;72.27;98718.34;4398386;80;21168;-88
2021/04/21 23:41:13;;;;;;;35.98;22.35;;;;;;;9.43;72.62;98718.91;4395037;80;21105;-88
2021/04/21 23:47:16;;;;;;;37.05;21.70;;;;;;;9.43;72.99;98722.21;4452231;80;21141;-89
2021/04/21 23:53:17;;;;;;;30.60;16.77;;;;;;;9.35;72.82;98724.66;4470692;80;21565;-86
2021/04/21 23:59:18;;;;;;;38.60;21.60;;;;;;;9.14;73.48;98731.24;4458676;80;21149;-88
